sensor_id;sensor_type;location;lat;lon;timestamp;temperature;humidity
73547;SHT30;61807;48.384;-4.386;2023-02-01T06:10:40;9.75;72.78
73547;SHT30;61807;48.384;-4.386;2023-02-01T06:13:05;9.92;73.37
73547;SHT30;61807;48.384;-4.386;2023-02-01T06:15:31;10.09;73.57
73547;SHT30;61807;48.384;-4.386;2023-02-01T06:17:57;10.29;73.60
73547;SHT30;61807;48.384;-4.386;2023-02-01T06:20:23;10.47;73.54
73547;SHT30;61807;48.384;-4.386;2023-02-01T06:22:48;10.63;73.34
73547;SHT30;61807;48.384;-4.386;2023-02-01T06:25:14;10.74;73.25
73547;SHT30;61807;48.384;-4.386;2023-02-01T06:27:39;10.89;73.32
73547;SHT30;61807;48.384;-4.386;2023-02-01T06:30:06;11.04;73.02
73547;SHT30;61807;48.384;-4.386;2023-02-01T06:32:32;11.15;72.86
73547;SHT30;61807;48.384;-4.386;2023-02-01T06:34:57;11.26;72.62
73547;SHT30;61807;48.384;-4.386;2023-02-01T06:37:24;11.39;72.41
73547;SHT30;61807;48.384;-4.386;2023-02-01T06:39:50;11.46;72.12
73547;SHT30;61807;48.384;-4.386;2023-02-01T06:42:16;11.60;71.82
73547;SHT30;61807;48.384;-4.386;2023-02-01T06:44:41;11.70;71.36
73547;SHT30;61807;48.384;-4.386;2023-02-01T06:47:07;11.70;71.39
73547;SHT30;61807;48.384;-4.386;2023-02-01T06:49:32;11.75;71.25
73547;SHT30;61807;48.384;-4.386;2023-02-01T06:51:58;11.78;70.10
73547;SHT30;61807;48.384;-4.386;2023-02-01T06:54:26;11.81;70.71
73547;SHT30;61807;48.384;-4.386;2023-02-01T06:56:51;11.90;70.60
73547;SHT30;61807;48.384;-4.386;2023-02-01T06:59:17;11.99;70.34
73547;SHT30;61807;48.384;-4.386;2023-02-01T07:01:42;11.98;70.57
73547;SHT30;61807;48.384;-4.386;2023-02-01T07:04:10;12.04;70.68
73547;SHT30;61807;48.384;-4.386;2023-02-01T07:06:36;12.06;70.79
73547;SHT30;61807;48.384;-4.386;2023-02-01T07:09:01;12.12;70.52
73547;SHT30;61807;48.384;-4.386;2023-02-01T07:11:27;12.14;70.14
73547;SHT30;61807;48.384;-4.386;2023-02-01T07:13:53;12.11;70.12
73547;SHT30;61807;48.384;-4.386;2023-02-01T07:16:19;12.11;70.17
73547;SHT30;61807;48.384;-4.386;2023-02-01T07:18:45;12.12;70.07
73547;SHT30;61807;48.384;-4.386;2023-02-01T07:21:11;12.11;70.12
73547;SHT30;61807;48.384;-4.386;2023-02-01T07:23:37;12.20;69.86
73547;SHT30;61807;48.384;-4.386;2023-02-01T07:26:06;12.26;69.86
73547;SHT30;61807;48.384;-4.386;2023-02-01T07:28:34;12.28;69.58
73547;SHT30;61807;48.384;-4.386;2023-02-01T07:31:10;12.24;69.02
73547;SHT30;61807;48.384;-4.386;2023-02-01T07:33:36;12.26;69.53
73547;SHT30;61807;48.384;-4.386;2023-02-01T07:36:04;12.36;69.37
73547;SHT30;61807;48.384;-4.386;2023-02-01T07:38:30;12.38;69.13
73547;SHT30;61807;48.384;-4.386;2023-02-01T07:41:00;12.43;68.96
73547;SHT30;61807;48.384;-4.386;2023-02-01T07:43:26;12.50;69.05
73547;SHT30;61807;48.384;-4.386;2023-02-01T07:45:52;12.57;68.85
73547;SHT30;61807;48.384;-4.386;2023-02-01T07:48:18;12.62;68.79
73547;SHT30;61807;48.384;-4.386;2023-02-01T07:50:43;12.63;68.62
73547;SHT30;61807;48.384;-4.386;2023-02-01T07:53:09;12.60;68.47
73547;SHT30;61807;48.384;-4.386;2023-02-01T07:55:37;12.59;68.36
73547;SHT30;61807;48.384;-4.386;2023-02-01T07:58:03;12.53;68.26
73547;SHT30;61807;48.384;-4.386;2023-02-01T08:00:28;12.46;68.23
73547;SHT30;61807;48.384;-4.386;2023-02-01T08:03:12;12.39;68.32
73547;SHT30;61807;48.384;-4.386;2023-02-01T08:05:38;12.35;68.24
73547;SHT30;61807;48.384;-4.386;2023-02-01T08:08:04;12.35;68.35
73547;SHT30;61807;48.384;-4.386;2023-02-01T08:10:30;12.33;68.35
73547;SHT30;61807;48.384;-4.386;2023-02-01T08:12:58;12.36;67.95
73547;SHT30;61807;48.384;-4.386;2023-02-01T08:15:25;12.35;68.32
73547;SHT30;61807;48.384;-4.386;2023-02-01T08:17:51;12.41;68.42
73547;SHT30;61807;48.384;-4.386;2023-02-01T08:20:18;12.50;68.37
73547;SHT30;61807;48.384;-4.386;2023-02-01T08:22:43;12.57;68.08
73547;SHT30;61807;48.384;-4.386;2023-02-01T08:25:09;12.62;67.90
73547;SHT30;61807;48.384;-4.386;2023-02-01T08:27:36;12.67;68.01
73547;SHT30;61807;48.384;-4.386;2023-02-01T08:30:02;12.75;67.78
73547;SHT30;61807;48.384;-4.386;2023-02-01T08:32:27;12.77;67.79
73547;SHT30;61807;48.384;-4.386;2023-02-01T08:34:53;12.79;67.51
73547;SHT30;61807;48.384;-4.386;2023-02-01T08:37:19;12.75;67.60
73547;SHT30;61807;48.384;-4.386;2023-02-01T08:39:44;12.75;67.69
73547;SHT30;61807;48.384;-4.386;2023-02-01T08:42:10;12.79;67.75
73547;SHT30;61807;48.384;-4.386;2023-02-01T08:44:55;12.81;67.55
73547;SHT30;61807;48.384;-4.386;2023-02-01T08:47:20;12.80;67.53
73547;SHT30;61807;48.384;-4.386;2023-02-01T08:49:46;12.81;67.60
73547;SHT30;61807;48.384;-4.386;2023-02-01T08:52:11;12.80;67.00
73547;SHT30;61807;48.384;-4.386;2023-02-01T08:54:37;12.79;66.69
73547;SHT30;61807;48.384;-4.386;2023-02-01T08:57:02;12.72;66.92
73547;SHT30;61807;48.384;-4.386;2023-02-01T08:59:29;12.70;66.79
73547;SHT30;61807;48.384;-4.386;2023-02-01T09:01:54;12.66;66.75
73547;SHT30;61807;48.384;-4.386;2023-02-01T09:04:20;12.63;66.67
73547;SHT30;61807;48.384;-4.386;2023-02-01T09:06:46;12.63;66.79
73547;SHT30;61807;48.384;-4.386;2023-02-01T09:09:11;12.63;66.83
73547;SHT30;61807;48.384;-4.386;2023-02-01T09:11:36;12.60;66.42
73547;SHT30;61807;48.384;-4.386;2023-02-01T09:14:02;12.56;66.17
73547;SHT30;61807;48.384;-4.386;2023-02-01T09:16:27;12.55;66.27
73547;SHT30;61807;48.384;-4.386;2023-02-01T09:18:53;12.56;66.56
73547;SHT30;61807;48.384;-4.386;2023-02-01T09:21:18;12.56;66.67
73547;SHT30;61807;48.384;-4.386;2023-02-01T09:23:43;12.57;66.49
73547;SHT30;61807;48.384;-4.386;2023-02-01T09:26:09;12.62;66.25
73547;SHT30;61807;48.384;-4.386;2023-02-01T09:28:36;12.66;66.19
73547;SHT30;61807;48.384;-4.386;2023-02-01T09:31:01;12.67;66.20
73547;SHT30;61807;48.384;-4.386;2023-02-01T09:33:28;12.69;66.22
73547;SHT30;61807;48.384;-4.386;2023-02-01T09:35:58;12.69;66.09
73547;SHT30;61807;48.384;-4.386;2023-02-01T09:38:24;12.67;66.11
73547;SHT30;61807;48.384;-4.386;2023-02-01T09:40:51;12.66;65.86
73547;SHT30;61807;48.384;-4.386;2023-02-01T09:43:37;12.62;65.64
73547;SHT30;61807;48.384;-4.386;2023-02-01T09:46:29;12.56;65.69
73547;SHT30;61807;48.384;-4.386;2023-02-01T09:48:57;12.52;65.82
73547;SHT30;61807;48.384;-4.386;2023-02-01T09:51:29;12.50;66.04
73547;SHT30;61807;48.384;-4.386;2023-02-01T09:54:12;12.49;66.16
73547;SHT30;61807;48.384;-4.386;2023-02-01T09:56:47;12.48;66.38
73547;SHT30;61807;48.384;-4.386;2023-02-01T10:01:40;12.48;66.52
73547;SHT30;61807;48.384;-4.386;2023-02-01T10:04:09;12.48;66.65
73547;SHT30;61807;48.384;-4.386;2023-02-01T10:07:01;12.43;66.88
73547;SHT30;61807;48.384;-4.386;2023-02-01T10:15:24;12.43;67.24
73547;SHT30;61807;48.384;-4.386;2023-02-01T10:26:31;12.49;67.31
73547;SHT30;61807;48.384;-4.386;2023-02-01T10:29:03;12.49;67.46
73547;SHT30;61807;48.384;-4.386;2023-02-01T10:31:33;12.46;67.36
73547;SHT30;61807;48.384;-4.386;2023-02-01T10:34:06;12.43;67.27
73547;SHT30;61807;48.384;-4.386;2023-02-01T10:36:35;12.42;67.30
73547;SHT30;61807;48.384;-4.386;2023-02-01T10:39:03;12.41;67.19
73547;SHT30;61807;48.384;-4.386;2023-02-01T10:41:39;12.39;67.19
73547;SHT30;61807;48.384;-4.386;2023-02-01T10:44:11;12.43;66.92
73547;SHT30;61807;48.384;-4.386;2023-02-01T10:46:38;12.43;66.88
73547;SHT30;61807;48.384;-4.386;2023-02-01T10:49:05;12.48;66.90
73547;SHT30;61807;48.384;-4.386;2023-02-01T10:51:43;12.46;66.29
73547;SHT30;61807;48.384;-4.386;2023-02-01T10:54:21;12.50;65.97
73547;SHT30;61807;48.384;-4.386;2023-02-01T10:56:49;12.53;65.98
73547;SHT30;61807;48.384;-4.386;2023-02-01T10:59:21;12.57;65.44
73547;SHT30;61807;48.384;-4.386;2023-02-01T11:01:49;12.60;65.18
73547;SHT30;61807;48.384;-4.386;2023-02-01T11:04:16;12.64;65.40
73547;SHT30;61807;48.384;-4.386;2023-02-01T11:06:46;12.66;65.21
73547;SHT30;61807;48.384;-4.386;2023-02-01T11:09:22;12.67;64.45
73547;SHT30;61807;48.384;-4.386;2023-02-01T11:17:01;12.56;64.35
73547;SHT30;61807;48.384;-4.386;2023-02-01T11:19:28;12.57;64.74
73547;SHT30;61807;48.384;-4.386;2023-02-01T11:21:57;12.60;64.64
73547;SHT30;61807;48.384;-4.386;2023-02-01T11:24:29;12.62;64.41
73547;SHT30;61807;48.384;-4.386;2023-02-01T11:26:57;12.62;64.36
73547;SHT30;61807;48.384;-4.386;2023-02-01T11:29:25;12.62;64.38
73547;SHT30;61807;48.384;-4.386;2023-02-01T11:31:59;12.64;64.43
73547;SHT30;61807;48.384;-4.386;2023-02-01T11:34:29;12.70;63.93
73547;SHT30;61807;48.384;-4.386;2023-02-01T11:37:00;12.83;63.77
73547;SHT30;61807;48.384;-4.386;2023-02-01T11:39:30;13.01;63.57
73547;SHT30;61807;48.384;-4.386;2023-02-01T11:42:11;13.17;63.33
73547;SHT30;61807;48.384;-4.386;2023-02-01T11:44:39;13.37;63.48
73547;SHT30;61807;48.384;-4.386;2023-02-01T11:47:29;13.51;63.03
73547;SHT30;61807;48.384;-4.386;2023-02-01T11:50:02;13.58;62.88
73547;SHT30;61807;48.384;-4.386;2023-02-01T12:06:54;13.87;61.88
73547;SHT30;61807;48.384;-4.386;2023-02-01T12:09:35;14.19;61.31
73547;SHT30;61807;48.384;-4.386;2023-02-01T12:18:32;15.37;60.02
73547;SHT30;61807;48.384;-4.386;2023-02-01T12:21:02;15.50;59.79
73547;SHT30;61807;48.384;-4.386;2023-02-01T12:28:46;16.45;59.07
73547;SHT30;61807;48.384;-4.386;2023-02-01T12:37:00;17.21;57.02
73547;SHT30;61807;48.384;-4.386;2023-02-01T12:42:11;16.64;56.72
73547;SHT30;61807;48.384;-4.386;2023-02-01T12:44:50;16.24;56.86
73547;SHT30;61807;48.384;-4.386;2023-02-01T12:47:32;15.90;57.36
73547;SHT30;61807;48.384;-4.386;2023-02-01T12:50:20;15.57;57.64
73547;SHT30;61807;48.384;-4.386;2023-02-01T12:52:50;15.26;57.80
73547;SHT30;61807;48.384;-4.386;2023-02-01T12:55:33;15.02;58.17
73547;SHT30;61807;48.384;-4.386;2023-02-01T12:58:11;14.81;58.12
73547;SHT30;61807;48.384;-4.386;2023-02-01T13:00:47;14.60;58.06
73547;SHT30;61807;48.384;-4.386;2023-02-01T13:03:48;14.36;57.84
73547;SHT30;61807;48.384;-4.386;2023-02-01T13:06:29;14.12;58.36
73547;SHT30;61807;48.384;-4.386;2023-02-01T13:09:04;13.99;58.92
73547;SHT30;61807;48.384;-4.386;2023-02-01T13:11:40;13.83;59.10
73547;SHT30;61807;48.384;-4.386;2023-02-01T13:14:42;13.73;59.35
73547;SHT30;61807;48.384;-4.386;2023-02-01T13:17:23;13.63;59.48
73547;SHT30;61807;48.384;-4.386;2023-02-01T13:22:46;13.48;59.33
73547;SHT30;61807;48.384;-4.386;2023-02-01T13:25:17;13.39;59.73
73547;SHT30;61807;48.384;-4.386;2023-02-01T13:27:44;13.37;59.88
73547;SHT30;61807;48.384;-4.386;2023-02-01T13:42:40;13.24;59.77
73547;SHT30;61807;48.384;-4.386;2023-02-01T13:45:30;13.22;59.76
73547;SHT30;61807;48.384;-4.386;2023-02-01T13:47:59;13.18;59.64
73547;SHT30;61807;48.384;-4.386;2023-02-01T13:50:38;13.14;59.44
73547;SHT30;61807;48.384;-4.386;2023-02-01T13:53:14;13.14;59.58
73547;SHT30;61807;48.384;-4.386;2023-02-01T13:55:43;13.15;59.70
73547;SHT30;61807;48.384;-4.386;2023-02-01T13:58:18;13.15;60.16
73547;SHT30;61807;48.384;-4.386;2023-02-01T14:00:44;13.12;60.11
73547;SHT30;61807;48.384;-4.386;2023-02-01T14:03:12;13.10;59.91
73547;SHT30;61807;48.384;-4.386;2023-02-01T14:10:48;12.96;59.66
73547;SHT30;61807;48.384;-4.386;2023-02-01T14:13:31;12.99;59.73
73547;SHT30;61807;48.384;-4.386;2023-02-01T14:21:28;12.93;59.74
73547;SHT30;61807;48.384;-4.386;2023-02-01T14:24:01;12.91;59.68
73547;SHT30;61807;48.384;-4.386;2023-02-01T14:34:55;12.94;60.23
73547;SHT30;61807;48.384;-4.386;2023-02-01T14:40:03;13.04;59.94
73547;SHT30;61807;48.384;-4.386;2023-02-01T15:03:55;13.06;59.58
73547;SHT30;61807;48.384;-4.386;2023-02-01T15:06:32;13.03;59.73
73547;SHT30;61807;48.384;-4.386;2023-02-01T15:09:07;13.01;59.97
73547;SHT30;61807;48.384;-4.386;2023-02-01T15:14:36;12.96;59.86
73547;SHT30;61807;48.384;-4.386;2023-02-01T15:17:25;12.90;59.76
73547;SHT30;61807;48.384;-4.386;2023-02-01T15:20:00;12.87;60.13
73547;SHT30;61807;48.384;-4.386;2023-02-01T15:22:28;12.83;60.17
73547;SHT30;61807;48.384;-4.386;2023-02-01T15:24:56;12.81;60.14
73547;SHT30;61807;48.384;-4.386;2023-02-01T15:27:22;12.80;60.37
73547;SHT30;61807;48.384;-4.386;2023-02-01T15:29:48;12.80;60.54
73547;SHT30;61807;48.384;-4.386;2023-02-01T15:32:35;12.77;60.67
73547;SHT30;61807;48.384;-4.386;2023-02-01T15:35:01;12.75;60.81
73547;SHT30;61807;48.384;-4.386;2023-02-01T15:37:28;12.73;61.04
73547;SHT30;61807;48.384;-4.386;2023-02-01T15:42:55;12.60;61.36
73547;SHT30;61807;48.384;-4.386;2023-02-01T15:45:32;12.55;61.50
73547;SHT30;61807;48.384;-4.386;2023-02-01T15:47:58;12.53;61.74
73547;SHT30;61807;48.384;-4.386;2023-02-01T15:50:24;12.52;61.90
73547;SHT30;61807;48.384;-4.386;2023-02-01T15:52:52;12.48;61.67
73547;SHT30;61807;48.384;-4.386;2023-02-01T15:55:37;12.42;61.97
73547;SHT30;61807;48.384;-4.386;2023-02-01T15:58:08;12.39;61.81
73547;SHT30;61807;48.384;-4.386;2023-02-01T16:00:50;12.36;62.03
73547;SHT30;61807;48.384;-4.386;2023-02-01T16:03:41;12.35;62.26
73547;SHT30;61807;48.384;-4.386;2023-02-01T16:06:10;12.33;62.12
73547;SHT30;61807;48.384;-4.386;2023-02-01T16:08:36;12.32;62.42
73547;SHT30;61807;48.384;-4.386;2023-02-01T16:13:33;12.29;62.74
73547;SHT30;61807;48.384;-4.386;2023-02-01T16:15:58;12.26;62.66
73547;SHT30;61807;48.384;-4.386;2023-02-01T16:18:24;12.26;62.57
73547;SHT30;61807;48.384;-4.386;2023-02-01T16:20:49;12.24;62.71
73547;SHT30;61807;48.384;-4.386;2023-02-01T16:23:15;12.20;62.43
73547;SHT30;61807;48.384;-4.386;2023-02-01T16:25:40;12.15;62.41
73547;SHT30;61807;48.384;-4.386;2023-02-01T16:28:06;12.14;62.51
73547;SHT30;61807;48.384;-4.386;2023-02-01T16:30:32;12.15;62.61
73547;SHT30;61807;48.384;-4.386;2023-02-01T16:32:59;12.15;62.63
73547;SHT30;61807;48.384;-4.386;2023-02-01T16:35:33;12.14;62.30
73547;SHT30;61807;48.384;-4.386;2023-02-01T16:38:07;12.08;62.01
73547;SHT30;61807;48.384;-4.386;2023-02-01T16:40:37;12.04;62.11
73547;SHT30;61807;48.384;-4.386;2023-02-01T16:43:12;11.97;62.23
73547;SHT30;61807;48.384;-4.386;2023-02-01T16:45:38;11.95;62.24
73547;SHT30;61807;48.384;-4.386;2023-02-01T16:48:05;11.94;62.31
73547;SHT30;61807;48.384;-4.386;2023-02-01T16:50:32;11.95;62.27
73547;SHT30;61807;48.384;-4.386;2023-02-01T16:52:58;11.94;62.55
73547;SHT30;61807;48.384;-4.386;2023-02-01T16:55:23;11.93;62.54
73547;SHT30;61807;48.384;-4.386;2023-02-01T16:57:50;11.90;62.66
73547;SHT30;61807;48.384;-4.386;2023-02-01T17:00:16;11.94;62.74
73547;SHT30;61807;48.384;-4.386;2023-02-01T17:02:41;11.93;62.83
73547;SHT30;61807;48.384;-4.386;2023-02-01T17:05:08;11.97;62.49
73547;SHT30;61807;48.384;-4.386;2023-02-01T17:07:33;11.93;62.88
73547;SHT30;61807;48.384;-4.386;2023-02-01T17:09:59;11.93;63.05
73547;SHT30;61807;48.384;-4.386;2023-02-01T17:12:30;11.90;62.99
73547;SHT30;61807;48.384;-4.386;2023-02-01T17:14:58;11.91;63.22
73547;SHT30;61807;48.384;-4.386;2023-02-01T17:17:26;11.88;63.20
73547;SHT30;61807;48.384;-4.386;2023-02-01T17:19:55;11.87;63.03
73547;SHT30;61807;48.384;-4.386;2023-02-01T17:22:20;11.90;62.96
73547;SHT30;61807;48.384;-4.386;2023-02-01T17:24:46;11.88;63.10
73547;SHT30;61807;48.384;-4.386;2023-02-01T17:27:12;11.84;63.06
73547;SHT30;61807;48.384;-4.386;2023-02-01T17:29:37;11.87;63.24
73547;SHT30;61807;48.384;-4.386;2023-02-01T17:32:03;11.88;63.30
73547;SHT30;61807;48.384;-4.386;2023-02-01T17:34:29;11.91;63.19
73547;SHT30;61807;48.384;-4.386;2023-02-01T17:36:55;11.91;63.01
73547;SHT30;61807;48.384;-4.386;2023-02-01T17:39:21;11.94;63.06
73547;SHT30;61807;48.384;-4.386;2023-02-01T17:42:08;11.98;63.12
73547;SHT30;61807;48.384;-4.386;2023-02-01T17:44:34;12.02;62.95
73547;SHT30;61807;48.384;-4.386;2023-02-01T17:46:59;12.02;62.77
73547;SHT30;61807;48.384;-4.386;2023-02-01T17:49:25;12.08;62.76
73547;SHT30;61807;48.384;-4.386;2023-02-01T17:51:53;12.14;62.87
73547;SHT30;61807;48.384;-4.386;2023-02-01T17:54:18;12.18;62.80
73547;SHT30;61807;48.384;-4.386;2023-02-01T17:56:45;12.24;62.77
73547;SHT30;61807;48.384;-4.386;2023-02-01T17:59:10;12.29;62.67
73547;SHT30;61807;48.384;-4.386;2023-02-01T18:01:36;12.28;62.69
73547;SHT30;61807;48.384;-4.386;2023-02-01T18:04:02;12.28;62.67
73547;SHT30;61807;48.384;-4.386;2023-02-01T18:06:31;12.29;62.99
73547;SHT30;61807;48.384;-4.386;2023-02-01T18:08:58;12.33;63.12
73547;SHT30;61807;48.384;-4.386;2023-02-01T18:11:24;12.39;63.20
73547;SHT30;61807;48.384;-4.386;2023-02-01T18:13:51;12.43;63.24
73547;SHT30;61807;48.384;-4.386;2023-02-01T18:16:26;12.43;62.99
73547;SHT30;61807;48.384;-4.386;2023-02-01T18:18:52;12.49;63.13
73547;SHT30;61807;48.384;-4.386;2023-02-01T18:21:20;12.55;63.20
73547;SHT30;61807;48.384;-4.386;2023-02-01T18:23:46;12.59;63.24
73547;SHT30;61807;48.384;-4.386;2023-02-01T18:26:14;12.64;63.32
73547;SHT30;61807;48.384;-4.386;2023-02-01T18:28:39;12.70;63.20
73547;SHT30;61807;48.384;-4.386;2023-02-01T18:31:10;12.73;63.21
73547;SHT30;61807;48.384;-4.386;2023-02-01T18:33:41;12.80;63.11
73547;SHT30;61807;48.384;-4.386;2023-02-01T18:36:10;12.80;62.97
73547;SHT30;61807;48.384;-4.386;2023-02-01T18:38:37;12.81;62.92
73547;SHT30;61807;48.384;-4.386;2023-02-01T18:41:02;12.77;62.99
73547;SHT30;61807;48.384;-4.386;2023-02-01T18:43:29;12.77;63.04
73547;SHT30;61807;48.384;-4.386;2023-02-01T18:45:55;12.81;63.12
73547;SHT30;61807;48.384;-4.386;2023-02-01T18:48:20;12.86;63.06
73547;SHT30;61807;48.384;-4.386;2023-02-01T18:50:46;12.90;63.07
73547;SHT30;61807;48.384;-4.386;2023-02-01T18:53:16;12.93;63.02
73547;SHT30;61807;48.384;-4.386;2023-02-01T18:55:45;12.91;62.82
73547;SHT30;61807;48.384;-4.386;2023-02-01T18:58:13;12.87;62.73
73547;SHT30;61807;48.384;-4.386;2023-02-01T19:00:40;12.81;62.70
73547;SHT30;61807;48.384;-4.386;2023-02-01T19:03:06;12.81;62.91
73547;SHT30;61807;48.384;-4.386;2023-02-01T19:05:31;12.81;62.99
73547;SHT30;61807;48.384;-4.386;2023-02-01T19:07:56;12.83;62.95
73547;SHT30;61807;48.384;-4.386;2023-02-01T19:10:22;12.86;62.84
73547;SHT30;61807;48.384;-4.386;2023-02-01T19:12:52;12.90;62.74
73547;SHT30;61807;48.384;-4.386;2023-02-01T19:15:19;12.96;62.87
73547;SHT30;61807;48.384;-4.386;2023-02-01T19:17:47;13.00;62.87
73547;SHT30;61807;48.384;-4.386;2023-02-01T19:20:15;13.04;62.78
73547;SHT30;61807;48.384;-4.386;2023-02-01T19:22:41;13.08;62.89
73547;SHT30;61807;48.384;-4.386;2023-02-01T19:25:11;13.08;62.77
73547;SHT30;61807;48.384;-4.386;2023-02-01T19:27:37;13.11;62.74
73547;SHT30;61807;48.384;-4.386;2023-02-01T19:30:03;13.12;62.61
73547;SHT30;61807;48.384;-4.386;2023-02-01T19:32:28;13.08;62.57
73547;SHT30;61807;48.384;-4.386;2023-02-01T19:34:54;13.07;62.91
73547;SHT30;61807;48.384;-4.386;2023-02-01T19:37:19;13.10;63.05
73547;SHT30;61807;48.384;-4.386;2023-02-01T19:39:45;13.12;62.93
73547;SHT30;61807;48.384;-4.386;2023-02-01T19:42:11;13.15;62.88
73547;SHT30;61807;48.384;-4.386;2023-02-01T19:44:36;13.14;62.76
73547;SHT30;61807;48.384;-4.386;2023-02-01T19:47:02;13.11;62.72
73547;SHT30;61807;48.384;-4.386;2023-02-01T19:49:27;13.10;62.80
73547;SHT30;61807;48.384;-4.386;2023-02-01T19:51:53;13.06;62.92
73547;SHT30;61807;48.384;-4.386;2023-02-01T19:54:18;13.08;62.88
73547;SHT30;61807;48.384;-4.386;2023-02-01T19:56:45;13.11;62.73
73547;SHT30;61807;48.384;-4.386;2023-02-01T19:59:13;13.08;63.00
73547;SHT30;61807;48.384;-4.386;2023-02-01T20:01:39;13.15;62.94
73547;SHT30;61807;48.384;-4.386;2023-02-01T20:04:05;13.11;62.67
73547;SHT30;61807;48.384;-4.386;2023-02-01T20:06:32;13.03;62.99
73547;SHT30;61807;48.384;-4.386;2023-02-01T20:08:58;13.03;62.90
73547;SHT30;61807;48.384;-4.386;2023-02-01T20:11:24;13.00;62.97
73547;SHT30;61807;48.384;-4.386;2023-02-01T20:13:54;12.97;62.87
73547;SHT30;61807;48.384;-4.386;2023-02-01T20:16:20;12.93;62.93
73547;SHT30;61807;48.384;-4.386;2023-02-01T20:18:46;12.91;63.03
73547;SHT30;61807;48.384;-4.386;2023-02-01T20:21:11;12.89;63.05
73547;SHT30;61807;48.384;-4.386;2023-02-01T20:23:37;12.83;63.12
73547;SHT30;61807;48.384;-4.386;2023-02-01T20:26:04;12.72;63.23
73547;SHT30;61807;48.384;-4.386;2023-02-01T20:28:30;12.69;63.36
73547;SHT30;61807;48.384;-4.386;2023-02-01T20:30:56;12.62;63.35
73547;SHT30;61807;48.384;-4.386;2023-02-01T20:33:21;12.53;63.58
73547;SHT30;61807;48.384;-4.386;2023-02-01T20:35:47;12.48;63.63
73547;SHT30;61807;48.384;-4.386;2023-02-01T20:38:12;12.42;63.71
73547;SHT30;61807;48.384;-4.386;2023-02-01T20:40:39;12.36;63.63
73547;SHT30;61807;48.384;-4.386;2023-02-01T20:43:04;12.24;63.49
73547;SHT30;61807;48.384;-4.386;2023-02-01T20:45:30;12.18;63.55
73547;SHT30;61807;48.384;-4.386;2023-02-01T20:47:55;12.11;63.62
73547;SHT30;61807;48.384;-4.386;2023-02-01T20:50:20;12.11;63.47
73547;SHT30;61807;48.384;-4.386;2023-02-01T20:52:46;12.06;63.39
73547;SHT30;61807;48.384;-4.386;2023-02-01T20:55:11;12.02;63.12
73547;SHT30;61807;48.384;-4.386;2023-02-01T20:57:37;11.98;63.24
73547;SHT30;61807;48.384;-4.386;2023-02-01T21:00:03;11.93;63.28
73547;SHT30;61807;48.384;-4.386;2023-02-01T21:02:32;11.93;63.22
73547;SHT30;61807;48.384;-4.386;2023-02-01T21:04:57;11.90;63.19
73547;SHT30;61807;48.384;-4.386;2023-02-01T21:07:22;11.88;63.22
73547;SHT30;61807;48.384;-4.386;2023-02-01T21:09:48;11.87;63.05
73547;SHT30;61807;48.384;-4.386;2023-02-01T21:12:13;11.87;62.92
73547;SHT30;61807;48.384;-4.386;2023-02-01T21:14:39;11.84;62.75
73547;SHT30;61807;48.384;-4.386;2023-02-01T21:17:04;11.90;62.86
73547;SHT30;61807;48.384;-4.386;2023-02-01T21:19:29;11.93;62.68
73547;SHT30;61807;48.384;-4.386;2023-02-01T21:22:07;11.91;62.76
73547;SHT30;61807;48.384;-4.386;2023-02-01T21:24:32;11.90;62.83
73547;SHT30;61807;48.384;-4.386;2023-02-01T21:26:58;11.85;62.94
73547;SHT30;61807;48.384;-4.386;2023-02-01T21:29:23;11.84;62.80
73547;SHT30;61807;48.384;-4.386;2023-02-01T21:31:48;11.84;62.95
73547;SHT30;61807;48.384;-4.386;2023-02-01T21:34:14;11.81;63.16
73547;SHT30;61807;48.384;-4.386;2023-02-01T21:36:39;11.80;63.18
73547;SHT30;61807;48.384;-4.386;2023-02-01T21:39:06;11.80;63.00
73547;SHT30;61807;48.384;-4.386;2023-02-01T21:41:33;11.83;62.80
73547;SHT30;61807;48.384;-4.386;2023-02-01T21:44:17;11.85;62.98
73547;SHT30;61807;48.384;-4.386;2023-02-01T21:46:43;11.84;62.92
73547;SHT30;61807;48.384;-4.386;2023-02-01T21:49:09;11.81;62.88
73547;SHT30;61807;48.384;-4.386;2023-02-01T21:51:34;11.80;62.90
73547;SHT30;61807;48.384;-4.386;2023-02-01T21:54:05;11.78;62.88
73547;SHT30;61807;48.384;-4.386;2023-02-01T21:56:31;11.78;62.79
73547;SHT30;61807;48.384;-4.386;2023-02-01T21:58:56;11.80;62.88
73547;SHT30;61807;48.384;-4.386;2023-02-01T22:01:22;11.75;62.91
73547;SHT30;61807;48.384;-4.386;2023-02-01T22:03:47;11.74;62.92
73547;SHT30;61807;48.384;-4.386;2023-02-01T22:06:27;11.73;62.87
73547;SHT30;61807;48.384;-4.386;2023-02-01T22:08:53;11.70;62.95
73547;SHT30;61807;48.384;-4.386;2023-02-01T22:11:19;11.69;63.04
73547;SHT30;61807;48.384;-4.386;2023-02-01T22:13:44;11.66;63.02
73547;SHT30;61807;48.384;-4.386;2023-02-01T22:16:09;11.63;63.21
73547;SHT30;61807;48.384;-4.386;2023-02-01T22:18:35;11.64;63.48
73547;SHT30;61807;48.384;-4.386;2023-02-01T22:21:00;11.63;63.58
73547;SHT30;61807;48.384;-4.386;2023-02-01T22:23:28;11.67;63.52
73547;SHT30;61807;48.384;-4.386;2023-02-01T22:26:04;11.67;63.71
73547;SHT30;61807;48.384;-4.386;2023-02-01T22:28:33;11.69;63.79
73547;SHT30;61807;48.384;-4.386;2023-02-01T22:31:01;11.64;63.60
73547;SHT30;61807;48.384;-4.386;2023-02-01T22:33:26;11.63;63.69
73547;SHT30;61807;48.384;-4.386;2023-02-01T22:35:52;11.66;63.66
73547;SHT30;61807;48.384;-4.386;2023-02-01T22:38:17;11.63;63.63
73547;SHT30;61807;48.384;-4.386;2023-02-01T22:40:43;11.64;63.73
73547;SHT30;61807;48.384;-4.386;2023-02-01T22:43:09;11.64;63.76
73547;SHT30;61807;48.384;-4.386;2023-02-01T22:45:38;11.62;63.77
73547;SHT30;61807;48.384;-4.386;2023-02-01T22:48:04;11.60;63.90
73547;SHT30;61807;48.384;-4.386;2023-02-01T22:50:30;11.57;63.77
73547;SHT30;61807;48.384;-4.386;2023-02-01T22:52:55;11.57;63.76
73547;SHT30;61807;48.384;-4.386;2023-02-01T22:55:20;11.57;63.78
73547;SHT30;61807;48.384;-4.386;2023-02-01T22:57:46;11.54;63.78
73547;SHT30;61807;48.384;-4.386;2023-02-01T23:00:12;11.56;63.87
73547;SHT30;61807;48.384;-4.386;2023-02-01T23:02:40;11.53;63.98
73547;SHT30;61807;48.384;-4.386;2023-02-01T23:05:06;11.53;63.98
73547;SHT30;61807;48.384;-4.386;2023-02-01T23:07:31;11.53;64.20
73547;SHT30;61807;48.384;-4.386;2023-02-01T23:09:56;11.53;64.26
73547;SHT30;61807;48.384;-4.386;2023-02-01T23:12:22;11.53;64.39
73547;SHT30;61807;48.384;-4.386;2023-02-01T23:14:47;11.49;64.44
73547;SHT30;61807;48.384;-4.386;2023-02-01T23:17:31;11.50;64.63
73547;SHT30;61807;48.384;-4.386;2023-02-01T23:19:57;11.49;64.73
73547;SHT30;61807;48.384;-4.386;2023-02-01T23:22:23;11.46;64.93
73547;SHT30;61807;48.384;-4.386;2023-02-01T23:24:49;11.44;64.98
73547;SHT30;61807;48.384;-4.386;2023-02-01T23:27:15;11.46;65.13
73547;SHT30;61807;48.384;-4.386;2023-02-01T23:29:40;11.42;65.24
73547;SHT30;61807;48.384;-4.386;2023-02-01T23:32:06;11.42;65.35
73547;SHT30;61807;48.384;-4.386;2023-02-01T23:34:32;11.37;65.24
73547;SHT30;61807;48.384;-4.386;2023-02-01T23:36:57;11.39;65.37